<?xml version="1.0" encoding="UTF-8" standalone="no" ?>
<gpx xmlns="http://www.topografix.com/GPX/1/1" xmlns:xsi="http://www.w3.org/2001/XMLSchema-instance" xsi:schemaLocation="http://www.topografix.com/GPX/1/1 http://www.topografix.com/GPX/1/1/gpx.xsd" version="1.1" creator="VisuGPX - https://www.visugpx.com">
  <metadata>
    <name>Enduros et Sentiers du Sappey en Chartreuse</name>
  </metadata>
  <trk>
    <name><![CDATA[Enduros et Sentiers du Sappey en Chartreuse_1]]></name>
    <extensions>
      <line xmlns="http://www.topografix.com/GPX/gpx_style/0/2">
        <color>0000FF</color>
        <width>4</width>
      </line>
    </extensions>
    <trkseg>
      <trkpt lat="45.26339" lon="5.79782">
        <ele>1251</ele>
        <time>2019-09-15T14:40:04.000Z</time>
      </trkpt>
      <trkpt lat="45.26339" lon="5.79782">
        <ele>1251</ele>
        <time>2019-09-15T14:40:04.000Z</time>
      </trkpt>
      <trkpt lat="45.26339" lon="5.79782">
        <ele>1251</ele>
        <time>2019-09-15T14:40:05.000Z</time>
      </trkpt>
      <trkpt lat="45.26339" lon="5.79782">
        <ele>1251</ele>
        <time>2019-09-15T14:40:06.000Z</time>
      </trkpt>
      <trkpt lat="45.26339" lon="5.79782">
        <ele>1251</ele>
        <time>2019-09-15T14:40:07.000Z</time>
      </trkpt>
      <trkpt lat="45.26339" lon="5.79782">
        <ele>1251</ele>
        <time>2019-09-15T14:40:08.000Z</time>
      </trkpt>
      <trkpt lat="45.26339" lon="5.79782">
        <ele>1251</ele>
        <time>2019-09-15T14:40:09.000Z</time>
      </trkpt>
      <trkpt lat="45.26339" lon="5.79782">
        <ele>1251</ele>
        <time>2019-09-15T14:40:10.000Z</time>
      </trkpt>
      <trkpt lat="45.26339" lon="5.79782">
        <ele>1251</ele>
        <time>2019-09-15T14:40:11.000Z</time>
      </trkpt>
      <trkpt lat="45.26339" lon="5.79782">
        <ele>1251</ele>
        <time>2019-09-15T14:40:12.000Z</time>
      </trkpt>
      <trkpt lat="45.26339" lon="5.79782">
        <ele>1251</ele>
        <time>2019-09-15T14:40:13.000Z</time>
      </trkpt>
      <trkpt lat="45.26339" lon="5.79782">
        <ele>1251</ele>
        <time>2019-09-15T14:40:14.000Z</time>
      </trkpt>
      <trkpt lat="45.26338" lon="5.79782">
        <ele>1251</ele>
        <time>2019-09-15T14:40:15.000Z</time>
      </trkpt>
      <trkpt lat="45.26339" lon="5.79781">
        <ele>1251</ele>
        <time>2019-09-15T14:40:16.000Z</time>
      </trkpt>
      <trkpt lat="45.26339" lon="5.79781">
        <ele>1251</ele>
        <time>2019-09-15T14:40:17.000Z</time>
      </trkpt>
      <trkpt lat="45.26339" lon="5.79781">
        <ele>1251</ele>
        <time>2019-09-15T14:40:18.000Z</time>
      </trkpt>
      <trkpt lat="45.2634" lon="5.7978">
        <ele>1251</ele>
        <time>2019-09-15T14:40:19.000Z</time>
      </trkpt>
      <trkpt lat="45.2634" lon="5.79779">
        <ele>1250</ele>
        <time>2019-09-15T14:40:20.000Z</time>
      </trkpt>
      <trkpt lat="45.26342" lon="5.79779">
        <ele>1250</ele>
        <time>2019-09-15T14:40:21.000Z</time>
      </trkpt>
      <trkpt lat="45.26343" lon="5.79777">
        <ele>1250</ele>
        <time>2019-09-15T14:40:22.000Z</time>
      </trkpt>
      <trkpt lat="45.26343" lon="5.79776">
        <ele>1250</ele>
        <time>2019-09-15T14:40:23.000Z</time>
      </trkpt>
      <trkpt lat="45.26343" lon="5.79774">
        <ele>1250</ele>
        <time>2019-09-15T14:40:24.000Z</time>
      </trkpt>
      <trkpt lat="45.26343" lon="5.79774">
        <ele>1250</ele>
        <time>2019-09-15T14:40:25.000Z</time>
      </trkpt>
      <trkpt lat="45.26342" lon="5.79773">
        <ele>1250</ele>
        <time>2019-09-15T14:40:26.000Z</time>
      </trkpt>
      <trkpt lat="45.26341" lon="5.79772">
        <ele>1250</ele>
        <time>2019-09-15T14:40:27.000Z</time>
      </trkpt>
      <trkpt lat="45.26339" lon="5.79771">
        <ele>1250</ele>
        <time>2019-09-15T14:40:28.000Z</time>
      </trkpt>
      <trkpt lat="45.26336" lon="5.7977">
        <ele>1250</ele>
        <time>2019-09-15T14:40:29.000Z</time>
      </trkpt>
      <trkpt lat="45.26332" lon="5.79769">
        <ele>1250</ele>
        <time>2019-09-15T14:40:30.000Z</time>
      </trkpt>
      <trkpt lat="45.26328" lon="5.79769">
        <ele>1250</ele>
        <time>2019-09-15T14:40:31.000Z</time>
      </trkpt>
      <trkpt lat="45.26325" lon="5.79767">
        <ele>1250</ele>
        <time>2019-09-15T14:40:32.000Z</time>
      </trkpt>
      <trkpt lat="45.26321" lon="5.79767">
        <ele>1250</ele>
        <time>2019-09-15T14:40:33.000Z</time>
      </trkpt>
      <trkpt lat="45.26317" lon="5.79768">
        <ele>1249</ele>
        <time>2019-09-15T14:40:34.000Z</time>
      </trkpt>
      <trkpt lat="45.26313" lon="5.79767">
        <ele>1249</ele>
        <time>2019-09-15T14:40:35.000Z</time>
      </trkpt>
      <trkpt lat="45.26309" lon="5.79766">
        <ele>1249</ele>
        <time>2019-09-15T14:40:36.000Z</time>
      </trkpt>
      <trkpt lat="45.26305" lon="5.79766">
        <ele>1249</ele>
        <time>2019-09-15T14:40:37.000Z</time>
      </trkpt>
      <trkpt lat="45.26302" lon="5.79767">
        <ele>1249</ele>
        <time>2019-09-15T14:40:38.000Z</time>
      </trkpt>
      <trkpt lat="45.26299" lon="5.79767">
        <ele>1249</ele>
        <time>2019-09-15T14:40:39.000Z</time>
      </trkpt>
      <trkpt lat="45.26297" lon="5.79767">
        <ele>1249</ele>
        <time>2019-09-15T14:40:40.000Z</time>
      </trkpt>
      <trkpt lat="45.26295" lon="5.79766">
        <ele>1249</ele>
        <time>2019-09-15T14:40:41.000Z</time>
      </trkpt>
      <trkpt lat="45.26294" lon="5.79763">
        <ele>1249</ele>
        <time>2019-09-15T14:40:42.000Z</time>
      </trkpt>
      <trkpt lat="45.26292" lon="5.7976">
        <ele>1249</ele>
        <time>2019-09-15T14:40:43.000Z</time>
      </trkpt>
      <trkpt lat="45.2629" lon="5.79756">
        <ele>1250</ele>
        <time>2019-09-15T14:40:44.000Z</time>
      </trkpt>
      <trkpt lat="45.26288" lon="5.79753">
        <ele>1250</ele>
        <time>2019-09-15T14:40:45.000Z</time>
      </trkpt>
      <trkpt lat="45.26286" lon="5.79749">
        <ele>1250</ele>
        <time>2019-09-15T14:40:46.000Z</time>
      </trkpt>
      <trkpt lat="45.26284" lon="5.79745">
        <ele>1250</ele>
        <time>2019-09-15T14:40:47.000Z</time>
      </trkpt>
      <trkpt lat="45.26281" lon="5.79742">
        <ele>1250</ele>
        <time>2019-09-15T14:40:48.000Z</time>
      </trkpt>
      <trkpt lat="45.26279" lon="5.79739">
        <ele>1250</ele>
        <time>2019-09-15T14:40:49.000Z</time>
      </trkpt>
      <trkpt lat="45.26277" lon="5.79737">
        <ele>1250</ele>
        <time>2019-09-15T14:40:50.000Z</time>
      </trkpt>
      <trkpt lat="45.26276" lon="5.79734">
        <ele>1250</ele>
        <time>2019-09-15T14:40:51.000Z</time>
      </trkpt>
      <trkpt lat="45.26275" lon="5.7973">
        <ele>1250</ele>
        <time>2019-09-15T14:40:52.000Z</time>
      </trkpt>
      <trkpt lat="45.26273" lon="5.79725">
        <ele>1250</ele>
        <time>2019-09-15T14:40:53.000Z</time>
      </trkpt>
      <trkpt lat="45.26271" lon="5.79722">
        <ele>1249</ele>
        <time>2019-09-15T14:40:54.000Z</time>
      </trkpt>
      <trkpt lat="45.26268" lon="5.79718">
        <ele>1249</ele>
        <time>2019-09-15T14:40:55.000Z</time>
      </trkpt>
      <trkpt lat="45.26266" lon="5.79716">
        <ele>1249</ele>
        <time>2019-09-15T14:40:56.000Z</time>
      </trkpt>
      <trkpt lat="45.26265" lon="5.79715">
        <ele>1249</ele>
        <time>2019-09-15T14:40:57.000Z</time>
      </trkpt>
      <trkpt lat="45.26264" lon="5.79713">
        <ele>1248</ele>
        <time>2019-09-15T14:40:58.000Z</time>
      </trkpt>
      <trkpt lat="45.26264" lon="5.79713">
        <ele>1248</ele>
        <time>2019-09-15T14:40:59.000Z</time>
      </trkpt>
      <trkpt lat="45.26263" lon="5.79712">
        <ele>1248</ele>
        <time>2019-09-15T14:41:00.000Z</time>
      </trkpt>
      <trkpt lat="45.26262" lon="5.79712">
        <ele>1248</ele>
        <time>2019-09-15T14:41:01.000Z</time>
      </trkpt>
      <trkpt lat="45.26262" lon="5.79712">
        <ele>1248</ele>
        <time>2019-09-15T14:41:02.000Z</time>
      </trkpt>
      <trkpt lat="45.26261" lon="5.79712">
        <ele>1248</ele>
        <time>2019-09-15T14:41:03.000Z</time>
      </trkpt>
      <trkpt lat="45.26261" lon="5.79711">
        <ele>1248</ele>
        <time>2019-09-15T14:41:04.000Z</time>
      </trkpt>
      <trkpt lat="45.2626" lon="5.79711">
        <ele>1247</ele>
        <time>2019-09-15T14:41:05.000Z</time>
      </trkpt>
      <trkpt lat="45.2626" lon="5.7971">
        <ele>1247</ele>
        <time>2019-09-15T14:41:06.000Z</time>
      </trkpt>
      <trkpt lat="45.26259" lon="5.7971">
        <ele>1247</ele>
        <time>2019-09-15T14:41:07.000Z</time>
      </trkpt>
      <trkpt lat="45.26259" lon="5.79709">
        <ele>1247</ele>
        <time>2019-09-15T14:41:08.000Z</time>
      </trkpt>
      <trkpt lat="45.26258" lon="5.79709">
        <ele>1247</ele>
        <time>2019-09-15T14:41:09.000Z</time>
      </trkpt>
      <trkpt lat="45.26258" lon="5.79708">
        <ele>1247</ele>
        <time>2019-09-15T14:41:10.000Z</time>
      </trkpt>
      <trkpt lat="45.26258" lon="5.79706">
        <ele>1247</ele>
        <time>2019-09-15T14:41:11.000Z</time>
      </trkpt>
      <trkpt lat="45.26259" lon="5.79705">
        <ele>1247</ele>
        <time>2019-09-15T14:41:12.000Z</time>
      </trkpt>
      <trkpt lat="45.26261" lon="5.79703">
        <ele>1247</ele>
        <time>2019-09-15T14:41:13.000Z</time>
      </trkpt>
      <trkpt lat="45.26263" lon="5.79702">
        <ele>1247</ele>
        <time>2019-09-15T14:41:14.000Z</time>
      </trkpt>
      <trkpt lat="45.26266" lon="5.79703">
        <ele>1247</ele>
        <time>2019-09-15T14:41:15.000Z</time>
      </trkpt>
      <trkpt lat="45.26269" lon="5.79705">
        <ele>1247</ele>
        <time>2019-09-15T14:41:16.000Z</time>
      </trkpt>
      <trkpt lat="45.26272" lon="5.79707">
        <ele>1246</ele>
        <time>2019-09-15T14:41:17.000Z</time>
      </trkpt>
      <trkpt lat="45.26275" lon="5.79708">
        <ele>1246</ele>
        <time>2019-09-15T14:41:18.000Z</time>
      </trkpt>
      <trkpt lat="45.26277" lon="5.79709">
        <ele>1246</ele>
        <time>2019-09-15T14:41:19.000Z</time>
      </trkpt>
      <trkpt lat="45.2628" lon="5.79709">
        <ele>1246</ele>
        <time>2019-09-15T14:41:20.000Z</time>
      </trkpt>
      <trkpt lat="45.26281" lon="5.7971">
        <ele>1246</ele>
        <time>2019-09-15T14:41:21.000Z</time>
      </trkpt>
      <trkpt lat="45.26283" lon="5.79711">
        <ele>1246</ele>
        <time>2019-09-15T14:41:22.000Z</time>
      </trkpt>
      <trkpt lat="45.26284" lon="5.79712">
        <ele>1245</ele>
        <time>2019-09-15T14:41:23.000Z</time>
      </trkpt>
      <trkpt lat="45.26285" lon="5.79712">
        <ele>1245</ele>
        <time>2019-09-15T14:41:24.000Z</time>
      </trkpt>
      <trkpt lat="45.26287" lon="5.79712">
        <ele>1245</ele>
        <time>2019-09-15T14:41:25.000Z</time>
      </trkpt>
      <trkpt lat="45.26289" lon="5.79712">
        <ele>1245</ele>
        <time>2019-09-15T14:41:26.000Z</time>
      </trkpt>
      <trkpt lat="45.26292" lon="5.79712">
        <ele>1245</ele>
        <time>2019-09-15T14:41:27.000Z</time>
      </trkpt>
      <trkpt lat="45.26295" lon="5.7971">
        <ele>1245</ele>
        <time>2019-09-15T14:41:28.000Z</time>
      </trkpt>
      <trkpt lat="45.26297" lon="5.79706">
        <ele>1245</ele>
        <time>2019-09-15T14:41:29.000Z</time>
      </trkpt>
      <trkpt lat="45.26301" lon="5.79703">
        <ele>1245</ele>
        <time>2019-09-15T14:41:30.000Z</time>
      </trkpt>
      <trkpt lat="45.26304" lon="5.79701">
        <ele>1244</ele>
        <time>2019-09-15T14:41:31.000Z</time>
      </trkpt>
      <trkpt lat="45.26308" lon="5.797">
        <ele>1244</ele>
        <time>2019-09-15T14:41:32.000Z</time>
      </trkpt>
      <trkpt lat="45.26311" lon="5.79699">
        <ele>1244</ele>
        <time>2019-09-15T14:41:33.000Z</time>
      </trkpt>
      <trkpt lat="45.26315" lon="5.79697">
        <ele>1244</ele>
        <time>2019-09-15T14:41:34.000Z</time>
      </trkpt>
      <trkpt lat="45.26317" lon="5.79694">
        <ele>1244</ele>
        <time>2019-09-15T14:41:35.000Z</time>
      </trkpt>
      <trkpt lat="45.26318" lon="5.79691">
        <ele>1243</ele>
        <time>2019-09-15T14:41:36.000Z</time>
      </trkpt>
      <trkpt lat="45.26318" lon="5.79688">
        <ele>1243</ele>
        <time>2019-09-15T14:41:37.000Z</time>
      </trkpt>
      <trkpt lat="45.26318" lon="5.79684">
        <ele>1243</ele>
        <time>2019-09-15T14:41:38.000Z</time>
      </trkpt>
      <trkpt lat="45.26316" lon="5.79681">
        <ele>1242</ele>
        <time>2019-09-15T14:41:39.000Z</time>
      </trkpt>
      <trkpt lat="45.26313" lon="5.79679">
        <ele>1242</ele>
        <time>2019-09-15T14:41:40.000Z</time>
      </trkpt>
      <trkpt lat="45.26312" lon="5.79677">
        <ele>1241</ele>
        <time>2019-09-15T14:41:41.000Z</time>
      </trkpt>
      <trkpt lat="45.26312" lon="5.79674">
        <ele>1241</ele>
        <time>2019-09-15T14:41:42.000Z</time>
      </trkpt>
      <trkpt lat="45.26312" lon="5.79671">
        <ele>1240</ele>
        <time>2019-09-15T14:41:43.000Z</time>
      </trkpt>
      <trkpt lat="45.26311" lon="5.79666">
        <ele>1240</ele>
        <time>2019-09-15T14:41:44.000Z</time>
      </trkpt>
      <trkpt lat="45.2631" lon="5.79663">
        <ele>1239</ele>
        <time>2019-09-15T14:41:45.000Z</time>
      </trkpt>
      <trkpt lat="45.2631" lon="5.79662">
        <ele>1239</ele>
        <time>2019-09-15T14:41:46.000Z</time>
      </trkpt>
      <trkpt lat="45.2631" lon="5.79662">
        <ele>1238</ele>
        <time>2019-09-15T14:41:47.000Z</time>
      </trkpt>
      <trkpt lat="45.2631" lon="5.79662">
        <ele>1238</ele>
        <time>2019-09-15T14:41:48.000Z</time>
      </trkpt>
      <trkpt lat="45.2631" lon="5.79662">
        <ele>1238</ele>
        <time>2019-09-15T14:41:49.000Z</time>
      </trkpt>
      <trkpt lat="45.2631" lon="5.79661">
        <ele>1237</ele>
        <time>2019-09-15T14:41:50.000Z</time>
      </trkpt>
      <trkpt lat="45.2631" lon="5.79661">
        <ele>1237</ele>
        <time>2019-09-15T14:41:51.000Z</time>
      </trkpt>
      <trkpt lat="45.2631" lon="5.79661">
        <ele>1237</ele>
        <time>2019-09-15T14:41:52.000Z</time>
      </trkpt>
      <trkpt lat="45.2631" lon="5.79661">
        <ele>1236</ele>
        <time>2019-09-15T14:41:53.000Z</time>
      </trkpt>
      <trkpt lat="45.2631" lon="5.79662">
        <ele>1236</ele>
        <time>2019-09-15T14:41:54.000Z</time>
      </trkpt>
      <trkpt lat="45.2631" lon="5.79662">
        <ele>1236</ele>
        <time>2019-09-15T14:41:55.000Z</time>
      </trkpt>
      <trkpt lat="45.2631" lon="5.79662">
        <ele>1236</ele>
        <time>2019-09-15T14:41:56.000Z</time>
      </trkpt>
      <trkpt lat="45.2631" lon="5.79662">
        <ele>1235</ele>
        <time>2019-09-15T14:41:57.000Z</time>
      </trkpt>
      <trkpt lat="45.2631" lon="5.79661">
        <ele>1235</ele>
        <time>2019-09-15T14:41:58.000Z</time>
      </trkpt>
      <trkpt lat="45.26309" lon="5.79661">
        <ele>1235</ele>
        <time>2019-09-15T14:41:59.000Z</time>
      </trkpt>
      <trkpt lat="45.26309" lon="5.79661">
        <ele>1234</ele>
        <time>2019-09-15T14:42:00.000Z</time>
      </trkpt>
      <trkpt lat="45.26309" lon="5.79661">
        <ele>1234</ele>
        <time>2019-09-15T14:42:01.000Z</time>
      </trkpt>
      <trkpt lat="45.26309" lon="5.79661">
        <ele>1234</ele>
        <time>2019-09-15T14:42:02.000Z</time>
      </trkpt>
      <trkpt lat="45.26308" lon="5.79661">
        <ele>1234</ele>
        <time>2019-09-15T14:42:03.000Z</time>
      </trkpt>
      <trkpt lat="45.26308" lon="5.79661">
        <ele>1233</ele>
        <time>2019-09-15T14:42:04.000Z</time>
      </trkpt>
      <trkpt lat="45.26308" lon="5.79661">
        <ele>1233</ele>
        <time>2019-09-15T14:42:05.000Z</time>
      </trkpt>
      <trkpt lat="45.26308" lon="5.79661">
        <ele>1233</ele>
        <time>2019-09-15T14:42:06.000Z</time>
      </trkpt>
      <trkpt lat="45.26308" lon="5.79661">
        <ele>1233</ele>
        <time>2019-09-15T14:42:07.000Z</time>
      </trkpt>
      <trkpt lat="45.26308" lon="5.7966">
        <ele>1233</ele>
        <time>2019-09-15T14:42:08.000Z</time>
      </trkpt>
      <trkpt lat="45.26308" lon="5.7966">
        <ele>1232</ele>
        <time>2019-09-15T14:42:09.000Z</time>
      </trkpt>
      <trkpt lat="45.26308" lon="5.7966">
        <ele>1232</ele>
        <time>2019-09-15T14:42:10.000Z</time>
      </trkpt>
      <trkpt lat="45.26308" lon="5.7966">
        <ele>1232</ele>
        <time>2019-09-15T14:42:11.000Z</time>
      </trkpt>
      <trkpt lat="45.26308" lon="5.7966">
        <ele>1232</ele>
        <time>2019-09-15T14:42:12.000Z</time>
      </trkpt>
      <trkpt lat="45.26308" lon="5.7966">
        <ele>1232</ele>
        <time>2019-09-15T14:42:13.000Z</time>
      </trkpt>
      <trkpt lat="45.26308" lon="5.7966">
        <ele>1232</ele>
        <time>2019-09-15T14:42:14.000Z</time>
      </trkpt>
      <trkpt lat="45.26308" lon="5.7966">
        <ele>1232</ele>
        <time>2019-09-15T14:42:15.000Z</time>
      </trkpt>
      <trkpt lat="45.26308" lon="5.7966">
        <ele>1232</ele>
        <time>2019-09-15T14:42:16.000Z</time>
      </trkpt>
      <trkpt lat="45.26308" lon="5.7966">
        <ele>1231</ele>
        <time>2019-09-15T14:42:17.000Z</time>
      </trkpt>
      <trkpt lat="45.26308" lon="5.79659">
        <ele>1231</ele>
        <time>2019-09-15T14:42:18.000Z</time>
      </trkpt>
      <trkpt lat="45.26307" lon="5.79658">
        <ele>1231</ele>
        <time>2019-09-15T14:42:19.000Z</time>
      </trkpt>
      <trkpt lat="45.26307" lon="5.79656">
        <ele>1231</ele>
        <time>2019-09-15T14:42:20.000Z</time>
      </trkpt>
      <trkpt lat="45.26307" lon="5.79654">
        <ele>1230</ele>
        <time>2019-09-15T14:42:21.000Z</time>
      </trkpt>
      <trkpt lat="45.26305" lon="5.79651">
        <ele>1230</ele>
        <time>2019-09-15T14:42:22.000Z</time>
      </trkpt>
      <trkpt lat="45.26304" lon="5.79646">
        <ele>1230</ele>
        <time>2019-09-15T14:42:23.000Z</time>
      </trkpt>
      <trkpt lat="45.26301" lon="5.79642">
        <ele>1229</ele>
        <time>2019-09-15T14:42:24.000Z</time>
      </trkpt>
      <trkpt lat="45.26299" lon="5.7964">
        <ele>1228</ele>
        <time>2019-09-15T14:42:25.000Z</time>
      </trkpt>
      <trkpt lat="45.26298" lon="5.79638">
        <ele>1228</ele>
        <time>2019-09-15T14:42:26.000Z</time>
      </trkpt>
      <trkpt lat="45.26298" lon="5.79636">
        <ele>1227</ele>
        <time>2019-09-15T14:42:27.000Z</time>
      </trkpt>
      <trkpt lat="45.26298" lon="5.79633">
        <ele>1226</ele>
        <time>2019-09-15T14:42:28.000Z</time>
      </trkpt>
      <trkpt lat="45.26297" lon="5.79629">
        <ele>1225</ele>
        <time>2019-09-15T14:42:29.000Z</time>
      </trkpt>
      <trkpt lat="45.26295" lon="5.79625">
        <ele>1225</ele>
        <time>2019-09-15T14:42:30.000Z</time>
      </trkpt>
      <trkpt lat="45.26294" lon="5.79623">
        <ele>1224</ele>
        <time>2019-09-15T14:42:31.000Z</time>
      </trkpt>
      <trkpt lat="45.26292" lon="5.7962">
        <ele>1223</ele>
        <time>2019-09-15T14:42:32.000Z</time>
      </trkpt>
      <trkpt lat="45.2629" lon="5.79617">
        <ele>1222</ele>
        <time>2019-09-15T14:42:33.000Z</time>
      </trkpt>
      <trkpt lat="45.26288" lon="5.79614">
        <ele>1221</ele>
        <time>2019-09-15T14:42:34.000Z</time>
      </trkpt>
      <trkpt lat="45.26286" lon="5.7961">
        <ele>1220</ele>
        <time>2019-09-15T14:42:35.000Z</time>
      </trkpt>
      <trkpt lat="45.26285" lon="5.79606">
        <ele>1220</ele>
        <time>2019-09-15T14:42:36.000Z</time>
      </trkpt>
      <trkpt lat="45.26284" lon="5.79602">
        <ele>1219</ele>
        <time>2019-09-15T14:42:37.000Z</time>
      </trkpt>
      <trkpt lat="45.26284" lon="5.79599">
        <ele>1218</ele>
        <time>2019-09-15T14:42:38.000Z</time>
      </trkpt>
      <trkpt lat="45.26283" lon="5.79598">
        <ele>1218</ele>
        <time>2019-09-15T14:42:39.000Z</time>
      </trkpt>
      <trkpt lat="45.26283" lon="5.79598">
        <ele>1217</ele>
        <time>2019-09-15T14:42:40.000Z</time>
      </trkpt>
      <trkpt lat="45.26283" lon="5.79598">
        <ele>1216</ele>
        <time>2019-09-15T14:42:41.000Z</time>
      </trkpt>
      <trkpt lat="45.26283" lon="5.79597">
        <ele>1216</ele>
        <time>2019-09-15T14:42:42.000Z</time>
      </trkpt>
      <trkpt lat="45.26283" lon="5.79597">
        <ele>1215</ele>
        <time>2019-09-15T14:42:43.000Z</time>
      </trkpt>
      <trkpt lat="45.26282" lon="5.79597">
        <ele>1215</ele>
        <time>2019-09-15T14:42:44.000Z</time>
      </trkpt>
      <trkpt lat="45.26282" lon="5.79597">
        <ele>1214</ele>
        <time>2019-09-15T14:42:45.000Z</time>
      </trkpt>
      <trkpt lat="45.26282" lon="5.79596">
        <ele>1214</ele>
        <time>2019-09-15T14:42:46.000Z</time>
      </trkpt>
      <trkpt lat="45.26283" lon="5.79595">
        <ele>1214</ele>
        <time>2019-09-15T14:42:47.000Z</time>
      </trkpt>
      <trkpt lat="45.26284" lon="5.79594">
        <ele>1213</ele>
        <time>2019-09-15T14:42:48.000Z</time>
      </trkpt>
      <trkpt lat="45.26285" lon="5.79593">
        <ele>1213</ele>
        <time>2019-09-15T14:42:49.000Z</time>
      </trkpt>
      <trkpt lat="45.26286" lon="5.79595">
        <ele>1213</ele>
        <time>2019-09-15T14:42:50.000Z</time>
      </trkpt>
      <trkpt lat="45.26287" lon="5.79597">
        <ele>1212</ele>
        <time>2019-09-15T14:42:51.000Z</time>
      </trkpt>
      <trkpt lat="45.26289" lon="5.79599">
        <ele>1212</ele>
        <time>2019-09-15T14:42:52.000Z</time>
      </trkpt>
      <trkpt lat="45.26291" lon="5.796">
        <ele>1212</ele>
        <time>2019-09-15T14:42:53.000Z</time>
      </trkpt>
      <trkpt lat="45.26293" lon="5.79601">
        <ele>1211</ele>
        <time>2019-09-15T14:42:54.000Z</time>
      </trkpt>
      <trkpt lat="45.26294" lon="5.796">
        <ele>1211</ele>
        <time>2019-09-15T14:42:55.000Z</time>
      </trkpt>
      <trkpt lat="45.26296" lon="5.796">
        <ele>1211</ele>
        <time>2019-09-15T14:42:56.000Z</time>
      </trkpt>
      <trkpt lat="45.26297" lon="5.79601">
        <ele>1210</ele>
        <time>2019-09-15T14:42:57.000Z</time>
      </trkpt>
      <trkpt lat="45.26297" lon="5.79602">
        <ele>1210</ele>
        <time>2019-09-15T14:42:58.000Z</time>
      </trkpt>
      <trkpt lat="45.26299" lon="5.79604">
        <ele>1210</ele>
        <time>2019-09-15T14:42:59.000Z</time>
      </trkpt>
      <trkpt lat="45.26301" lon="5.79604">
        <ele>1210</ele>
        <time>2019-09-15T14:43:00.000Z</time>
      </trkpt>
      <trkpt lat="45.26303" lon="5.79605">
        <ele>1209</ele>
        <time>2019-09-15T14:43:01.000Z</time>
      </trkpt>
      <trkpt lat="45.26304" lon="5.79605">
        <ele>1209</ele>
        <time>2019-09-15T14:43:02.000Z</time>
      </trkpt>
      <trkpt lat="45.26306" lon="5.79605">
        <ele>1209</ele>
        <time>2019-09-15T14:43:03.000Z</time>
      </trkpt>
      <trkpt lat="45.26307" lon="5.79606">
        <ele>1208</ele>
        <time>2019-09-15T14:43:04.000Z</time>
      </trkpt>
      <trkpt lat="45.26308" lon="5.79607">
        <ele>1208</ele>
        <time>2019-09-15T14:43:05.000Z</time>
      </trkpt>
      <trkpt lat="45.26309" lon="5.79607">
        <ele>1208</ele>
        <time>2019-09-15T14:43:06.000Z</time>
      </trkpt>
      <trkpt lat="45.2631" lon="5.79607">
        <ele>1208</ele>
        <time>2019-09-15T14:43:07.000Z</time>
      </trkpt>
      <trkpt lat="45.2631" lon="5.79607">
        <ele>1207</ele>
        <time>2019-09-15T14:43:08.000Z</time>
      </trkpt>
      <trkpt lat="45.26311" lon="5.79608">
        <ele>1207</ele>
        <time>2019-09-15T14:43:09.000Z</time>
      </trkpt>
      <trkpt lat="45.26312" lon="5.79608">
        <ele>1207</ele>
        <time>2019-09-15T14:43:10.000Z</time>
      </trkpt>
      <trkpt lat="45.26312" lon="5.79608">
        <ele>1207</ele>
        <time>2019-09-15T14:43:11.000Z</time>
      </trkpt>
      <trkpt lat="45.26313" lon="5.79609">
        <ele>1207</ele>
        <time>2019-09-15T14:43:12.000Z</time>
      </trkpt>
      <trkpt lat="45.26314" lon="5.79609">
        <ele>1206</ele>
        <time>2019-09-15T14:43:13.000Z</time>
      </trkpt>
      <trkpt lat="45.26315" lon="5.7961">
        <ele>1206</ele>
        <time>2019-09-15T14:43:14.000Z</time>
      </trkpt>
      <trkpt lat="45.26316" lon="5.7961">
        <ele>1206</ele>
        <time>2019-09-15T14:43:15.000Z</time>
      </trkpt>
      <trkpt lat="45.26317" lon="5.7961">
        <ele>1205</ele>
        <time>2019-09-15T14:43:16.000Z</time>
      </trkpt>
      <trkpt lat="45.26318" lon="5.79611">
        <ele>1205</ele>
        <time>2019-09-15T14:43:17.000Z</time>
      </trkpt>
      <trkpt lat="45.26319" lon="5.79611">
        <ele>1205</ele>
        <time>2019-09-15T14:43:18.000Z</time>
      </trkpt>
      <trkpt lat="45.26319" lon="5.79611">
        <ele>1204</ele>
        <time>2019-09-15T14:43:19.000Z</time>
      </trkpt>
      <trkpt lat="45.2632" lon="5.79611">
        <ele>1204</ele>
        <time>2019-09-15T14:43:20.000Z</time>
      </trkpt>
      <trkpt lat="45.26321" lon="5.79611">
        <ele>1204</ele>
        <time>2019-09-15T14:43:21.000Z</time>
      </trkpt>
      <trkpt lat="45.26322" lon="5.79611">
        <ele>1203</ele>
        <time>2019-09-15T14:43:22.000Z</time>
      </trkpt>
      <trkpt lat="45.26323" lon="5.79612">
        <ele>1203</ele>
        <time>2019-09-15T14:43:23.000Z</time>
      </trkpt>
      <trkpt lat="45.26325" lon="5.79612">
        <ele>1203</ele>
        <time>2019-09-15T14:43:24.000Z</time>
      </trkpt>
      <trkpt lat="45.26327" lon="5.79611">
        <ele>1203</ele>
        <time>2019-09-15T14:43:25.000Z</time>
      </trkpt>
      <trkpt lat="45.26327" lon="5.7961">
        <ele>1202</ele>
        <time>2019-09-15T14:43:26.000Z</time>
      </trkpt>
      <trkpt lat="45.26327" lon="5.79608">
        <ele>1202</ele>
        <time>2019-09-15T14:43:27.000Z</time>
      </trkpt>
      <trkpt lat="45.26326" lon="5.79607">
        <ele>1202</ele>
        <time>2019-09-15T14:43:28.000Z</time>
      </trkpt>
      <trkpt lat="45.26325" lon="5.79606">
        <ele>1201</ele>
        <time>2019-09-15T14:43:29.000Z</time>
      </trkpt>
      <trkpt lat="45.26324" lon="5.79606">
        <ele>1201</ele>
        <time>2019-09-15T14:43:30.000Z</time>
      </trkpt>
      <trkpt lat="45.26324" lon="5.79605">
        <ele>1201</ele>
        <time>2019-09-15T14:43:31.000Z</time>
      </trkpt>
      <trkpt lat="45.26324" lon="5.79605">
        <ele>1200</ele>
        <time>2019-09-15T14:43:32.000Z</time>
      </trkpt>
      <trkpt lat="45.26323" lon="5.79604">
        <ele>1200</ele>
        <time>2019-09-15T14:43:33.000Z</time>
      </trkpt>
      <trkpt lat="45.26323" lon="5.79603">
        <ele>1200</ele>
        <time>2019-09-15T14:43:34.000Z</time>
      </trkpt>
      <trkpt lat="45.26322" lon="5.79602">
        <ele>1199</ele>
        <time>2019-09-15T14:43:35.000Z</time>
      </trkpt>
      <trkpt lat="45.26321" lon="5.79602">
        <ele>1199</ele>
        <time>2019-09-15T14:43:36.000Z</time>
      </trkpt>
      <trkpt lat="45.26321" lon="5.79601">
        <ele>1199</ele>
        <time>2019-09-15T14:43:37.000Z</time>
      </trkpt>
      <trkpt lat="45.2632" lon="5.79601">
        <ele>1199</ele>
        <time>2019-09-15T14:43:38.000Z</time>
      </trkpt>
      <trkpt lat="45.2632" lon="5.79601">
        <ele>1198</ele>
        <time>2019-09-15T14:43:39.000Z</time>
      </trkpt>
      <trkpt lat="45.2632" lon="5.79601">
        <ele>1198</ele>
        <time>2019-09-15T14:43:40.000Z</time>
      </trkpt>
      <trkpt lat="45.2632" lon="5.796">
        <ele>1198</ele>
        <time>2019-09-15T14:43:41.000Z</time>
      </trkpt>
      <trkpt lat="45.2632" lon="5.796">
        <ele>1198</ele>
        <time>2019-09-15T14:43:42.000Z</time>
      </trkpt>
      <trkpt lat="45.26319" lon="5.796">
        <ele>1197</ele>
        <time>2019-09-15T14:43:43.000Z</time>
      </trkpt>
      <trkpt lat="45.26319" lon="5.79599">
        <ele>1197</ele>
        <time>2019-09-15T14:43:44.000Z</time>
      </trkpt>
      <trkpt lat="45.26319" lon="5.796">
        <ele>1197</ele>
        <time>2019-09-15T14:43:45.000Z</time>
      </trkpt>
      <trkpt lat="45.26319" lon="5.796">
        <ele>1197</ele>
        <time>2019-09-15T14:43:46.000Z</time>
      </trkpt>
      <trkpt lat="45.26319" lon="5.79599">
        <ele>1197</ele>
        <time>2019-09-15T14:43:47.000Z</time>
      </trkpt>
      <trkpt lat="45.26319" lon="5.79599">
        <ele>1197</ele>
        <time>2019-09-15T14:43:48.000Z</time>
      </trkpt>
      <trkpt lat="45.26319" lon="5.79599">
        <ele>1197</ele>
        <time>2019-09-15T14:43:49.000Z</time>
      </trkpt>
      <trkpt lat="45.26319" lon="5.79599">
        <ele>1196</ele>
        <time>2019-09-15T14:43:50.000Z</time>
      </trkpt>
      <trkpt lat="45.2632" lon="5.79598">
        <ele>1196</ele>
        <time>2019-09-15T14:43:51.000Z</time>
      </trkpt>
      <trkpt lat="45.2632" lon="5.79597">
        <ele>1196</ele>
        <time>2019-09-15T14:43:52.000Z</time>
      </trkpt>
      <trkpt lat="45.26321" lon="5.79596">
        <ele>1196</ele>
        <time>2019-09-15T14:43:53.000Z</time>
      </trkpt>
      <trkpt lat="45.26322" lon="5.79594">
        <ele>1196</ele>
        <time>2019-09-15T14:43:54.000Z</time>
      </trkpt>
      <trkpt lat="45.26323" lon="5.79592">
        <ele>1196</ele>
        <time>2019-09-15T14:43:55.000Z</time>
      </trkpt>
      <trkpt lat="45.26324" lon="5.7959">
        <ele>1196</ele>
        <time>2019-09-15T14:43:56.000Z</time>
      </trkpt>
      <trkpt lat="45.26324" lon="5.79587">
        <ele>1195</ele>
        <time>2019-09-15T14:43:57.000Z</time>
      </trkpt>
      <trkpt lat="45.26323" lon="5.79582">
        <ele>1195</ele>
        <time>2019-09-15T14:43:58.000Z</time>
      </trkpt>
      <trkpt lat="45.26322" lon="5.79579">
        <ele>1194</ele>
        <time>2019-09-15T14:43:59.000Z</time>
      </trkpt>
      <trkpt lat="45.26323" lon="5.79577">
        <ele>1194</ele>
        <time>2019-09-15T14:44:00.000Z</time>
      </trkpt>
      <trkpt lat="45.26323" lon="5.79574">
        <ele>1193</ele>
        <time>2019-09-15T14:44:01.000Z</time>
      </trkpt>
      <trkpt lat="45.26323" lon="5.79572">
        <ele>1192</ele>
        <time>2019-09-15T14:44:02.000Z</time>
      </trkpt>
      <trkpt lat="45.26324" lon="5.79569">
        <ele>1191</ele>
        <time>2019-09-15T14:44:03.000Z</time>
      </trkpt>
      <trkpt lat="45.26325" lon="5.79568">
        <ele>1191</ele>
        <time>2019-09-15T14:44:04.000Z</time>
      </trkpt>
      <trkpt lat="45.26325" lon="5.79568">
        <ele>1190</ele>
        <time>2019-09-15T14:44:05.000Z</time>
      </trkpt>
      <trkpt lat="45.26326" lon="5.79568">
        <ele>1190</ele>
        <time>2019-09-15T14:44:06.000Z</time>
      </trkpt>
      <trkpt lat="45.26326" lon="5.79568">
        <ele>1189</ele>
        <time>2019-09-15T14:44:07.000Z</time>
      </trkpt>
      <trkpt lat="45.26326" lon="5.79569">
        <ele>1189</ele>
        <time>2019-09-15T14:44:08.000Z</time>
      </trkpt>
      <trkpt lat="45.26327" lon="5.79569">
        <ele>1189</ele>
        <time>2019-09-15T14:44:09.000Z</time>
      </trkpt>
      <trkpt lat="45.26327" lon="5.79569">
        <ele>1188</ele>
        <time>2019-09-15T14:44:10.000Z</time>
      </trkpt>
      <trkpt lat="45.26328" lon="5.79569">
        <ele>1188</ele>
        <time>2019-09-15T14:44:11.000Z</time>
      </trkpt>
      <trkpt lat="45.26328" lon="5.79569">
        <ele>1188</ele>
        <time>2019-09-15T14:44:12.000Z</time>
      </trkpt>
      <trkpt lat="45.26328" lon="5.79569">
        <ele>1188</ele>
        <time>2019-09-15T14:44:13.000Z</time>
      </trkpt>
      <trkpt lat="45.26329" lon="5.79568">
        <ele>1188</ele>
        <time>2019-09-15T14:44:14.000Z</time>
      </trkpt>
      <trkpt lat="45.2633" lon="5.79566">
        <ele>1188</ele>
        <time>2019-09-15T14:44:15.000Z</time>
      </trkpt>
      <trkpt lat="45.26331" lon="5.79563">
        <ele>1187</ele>
        <time>2019-09-15T14:44:16.000Z</time>
      </trkpt>
      <trkpt lat="45.26332" lon="5.79561">
        <ele>1187</ele>
        <time>2019-09-15T14:44:17.000Z</time>
      </trkpt>
      <trkpt lat="45.26333" lon="5.79558">
        <ele>1187</ele>
        <time>2019-09-15T14:44:18.000Z</time>
      </trkpt>
      <trkpt lat="45.26334" lon="5.79555">
        <ele>1187</ele>
        <time>2019-09-15T14:44:19.000Z</time>
      </trkpt>
      <trkpt lat="45.26334" lon="5.79553">
        <ele>1187</ele>
        <time>2019-09-15T14:44:20.000Z</time>
      </trkpt>
      <trkpt lat="45.26334" lon="5.7955">
        <ele>1186</ele>
        <time>2019-09-15T14:44:21.000Z</time>
      </trkpt>
      <trkpt lat="45.26333" lon="5.79549">
        <ele>1186</ele>
        <time>2019-09-15T14:44:22.000Z</time>
      </trkpt>
      <trkpt lat="45.26332" lon="5.79549">
        <ele>1186</ele>
        <time>2019-09-15T14:44:23.000Z</time>
      </trkpt>
      <trkpt lat="45.26332" lon="5.79549">
        <ele>1185</ele>
        <time>2019-09-15T14:44:24.000Z</time>
      </trkpt>
      <trkpt lat="45.26332" lon="5.79549">
        <ele>1185</ele>
        <time>2019-09-15T14:44:25.000Z</time>
      </trkpt>
      <trkpt lat="45.26332" lon="5.79549">
        <ele>1184</ele>
        <time>2019-09-15T14:44:26.000Z</time>
      </trkpt>
      <trkpt lat="45.26331" lon="5.7955">
        <ele>1184</ele>
        <time>2019-09-15T14:44:27.000Z</time>
      </trkpt>
      <trkpt lat="45.26331" lon="5.7955">
        <ele>1183</ele>
        <time>2019-09-15T14:44:28.000Z</time>
      </trkpt>
      <trkpt lat="45.26331" lon="5.79551">
        <ele>1183</ele>
        <time>2019-09-15T14:44:29.000Z</time>
      </trkpt>
      <trkpt lat="45.2633" lon="5.79551">
        <ele>1182</ele>
        <time>2019-09-15T14:44:30.000Z</time>
      </trkpt>
      <trkpt lat="45.2633" lon="5.79551">
        <ele>1182</ele>
        <time>2019-09-15T14:44:31.000Z</time>
      </trkpt>
      <trkpt lat="45.2633" lon="5.79551">
        <ele>1182</ele>
        <time>2019-09-15T14:44:32.000Z</time>
      </trkpt>
      <trkpt lat="45.2633" lon="5.79551">
        <ele>1181</ele>
        <time>2019-09-15T14:44:33.000Z</time>
      </trkpt>
      <trkpt lat="45.26329" lon="5.79551">
        <ele>1181</ele>
        <time>2019-09-15T14:44:34.000Z</time>
      </trkpt>
      <trkpt lat="45.26329" lon="5.79551">
        <ele>1180</ele>
        <time>2019-09-15T14:44:35.000Z</time>
      </trkpt>
      <trkpt lat="45.26328" lon="5.7955">
        <ele>1180</ele>
        <time>2019-09-15T14:44:36.000Z</time>
      </trkpt>
      <trkpt lat="45.26327" lon="5.79548">
        <ele>1179</ele>
        <time>2019-09-15T14:44:37.000Z</time>
      </trkpt>
      <trkpt lat="45.26326" lon="5.79546">
        <ele>1178</ele>
        <time>2019-09-15T14:44:38.000Z</time>
      </trkpt>
      <trkpt lat="45.26327" lon="5.79544">
        <ele>1178</ele>
        <time>2019-09-15T14:44:39.000Z</time>
      </trkpt>
      <trkpt lat="45.26328" lon="5.79541">
        <ele>1177</ele>
        <time>2019-09-15T14:44:40.000Z</time>
      </trkpt>
      <trkpt lat="45.26329" lon="5.79538">
        <ele>1177</ele>
        <time>2019-09-15T14:44:41.000Z</time>
      </trkpt>
      <trkpt lat="45.26329" lon="5.79534">
        <ele>1176</ele>
        <time>2019-09-15T14:44:42.000Z</time>
      </trkpt>
      <trkpt lat="45.26329" lon="5.7953">
        <ele>1176</ele>
        <time>2019-09-15T14:44:43.000Z</time>
      </trkpt>
      <trkpt lat="45.26329" lon="5.79527">
        <ele>1175</ele>
        <time>2019-09-15T14:44:44.000Z</time>
      </trkpt>
      <trkpt lat="45.2633" lon="5.79524">
        <ele>1175</ele>
        <time>2019-09-15T14:44:45.000Z</time>
      </trkpt>
      <trkpt lat="45.26331" lon="5.79523">
        <ele>1174</ele>
        <time>2019-09-15T14:44:46.000Z</time>
      </trkpt>
      <trkpt lat="45.26333" lon="5.79523">
        <ele>1174</ele>
        <time>2019-09-15T14:44:47.000Z</time>
      </trkpt>
      <trkpt lat="45.26335" lon="5.79523">
        <ele>1173</ele>
        <time>2019-09-15T14:44:48.000Z</time>
      </trkpt>
      <trkpt lat="45.26337" lon="5.79523">
        <ele>1173</ele>
        <time>2019-09-15T14:44:49.000Z</time>
      </trkpt>
      <trkpt lat="45.2634" lon="5.79523">
        <ele>1173</ele>
        <time>2019-09-15T14:44:50.000Z</time>
      </trkpt>
      <trkpt lat="45.26343" lon="5.79523">
        <ele>1172</ele>
        <time>2019-09-15T14:44:51.000Z</time>
      </trkpt>
      <trkpt lat="45.26345" lon="5.79522">
        <ele>1172</ele>
        <time>2019-09-15T14:44:52.000Z</time>
      </trkpt>
      <trkpt lat="45.26346" lon="5.79521">
        <ele>1172</ele>
        <time>2019-09-15T14:44:53.000Z</time>
      </trkpt>
      <trkpt lat="45.26347" lon="5.79521">
        <ele>1172</ele>
        <time>2019-09-15T14:44:54.000Z</time>
      </trkpt>
      <trkpt lat="45.26347" lon="5.79521">
        <ele>1172</ele>
        <time>2019-09-15T14:44:55.000Z</time>
      </trkpt>
      <trkpt lat="45.26348" lon="5.79521">
        <ele>1172</ele>
        <time>2019-09-15T14:44:56.000Z</time>
      </trkpt>
      <trkpt lat="45.2635" lon="5.79521">
        <ele>1172</ele>
        <time>2019-09-15T14:44:57.000Z</time>
      </trkpt>
      <trkpt lat="45.26351" lon="5.79521">
        <ele>1172</ele>
        <time>2019-09-15T14:44:58.000Z</time>
      </trkpt>
      <trkpt lat="45.26352" lon="5.79521">
        <ele>1172</ele>
        <time>2019-09-15T14:44:59.000Z</time>
      </trkpt>
      <trkpt lat="45.26353" lon="5.7952">
        <ele>1171</ele>
        <time>2019-09-15T14:45:00.000Z</time>
      </trkpt>
      <trkpt lat="45.26355" lon="5.79519">
        <ele>1171</ele>
        <time>2019-09-15T14:45:01.000Z</time>
      </trkpt>
      <trkpt lat="45.26356" lon="5.79519">
        <ele>1171</ele>
        <time>2019-09-15T14:45:02.000Z</time>
      </trkpt>
      <trkpt lat="45.26357" lon="5.79517">
        <ele>1171</ele>
        <time>2019-09-15T14:45:03.000Z</time>
      </trkpt>
      <trkpt lat="45.26358" lon="5.79514">
        <ele>1171</ele>
        <time>2019-09-15T14:45:04.000Z</time>
      </trkpt>
      <trkpt lat="45.26358" lon="5.79509">
        <ele>1171</ele>
        <time>2019-09-15T14:45:05.000Z</time>
      </trkpt>
      <trkpt lat="45.26359" lon="5.79503">
        <ele>1171</ele>
        <time>2019-09-15T14:45:06.000Z</time>
      </trkpt>
      <trkpt lat="45.26361" lon="5.79498">
        <ele>1171</ele>
        <time>2019-09-15T14:45:07.000Z</time>
      </trkpt>
      <trkpt lat="45.26363" lon="5.79493">
        <ele>1171</ele>
        <time>2019-09-15T14:45:08.000Z</time>
      </trkpt>
      <trkpt lat="45.26364" lon="5.79489">
        <ele>1171</ele>
        <time>2019-09-15T14:45:09.000Z</time>
      </trkpt>
      <trkpt lat="45.26366" lon="5.79485">
        <ele>1170</ele>
        <time>2019-09-15T14:45:10.000Z</time>
      </trkpt>
      <trkpt lat="45.26367" lon="5.79482">
        <ele>1170</ele>
        <time>2019-09-15T14:45:11.000Z</time>
      </trkpt>
      <trkpt lat="45.26368" lon="5.79479">
        <ele>1170</ele>
        <time>2019-09-15T14:45:12.000Z</time>
      </trkpt>
      <trkpt lat="45.2637" lon="5.79474">
        <ele>1170</ele>
        <time>2019-09-15T14:45:13.000Z</time>
      </trkpt>
      <trkpt lat="45.26372" lon="5.79468">
        <ele>1169</ele>
        <time>2019-09-15T14:45:14.000Z</time>
      </trkpt>
      <trkpt lat="45.26373" lon="5.79461">
        <ele>1169</ele>
        <time>2019-09-15T14:45:15.000Z</time>
      </trkpt>
      <trkpt lat="45.26374" lon="5.79455">
        <ele>1169</ele>
        <time>2019-09-15T14:45:16.000Z</time>
      </trkpt>
      <trkpt lat="45.26374" lon="5.7945">
        <ele>1168</ele>
        <time>2019-09-15T14:45:17.000Z</time>
      </trkpt>
      <trkpt lat="45.26374" lon="5.79445">
        <ele>1167</ele>
        <time>2019-09-15T14:45:18.000Z</time>
      </trkpt>
      <trkpt lat="45.26374" lon="5.79442">
        <ele>1167</ele>
        <time>2019-09-15T14:45:19.000Z</time>
      </trkpt>
      <trkpt lat="45.26375" lon="5.7944">
        <ele>1166</ele>
        <time>2019-09-15T14:45:20.000Z</time>
      </trkpt>
      <trkpt lat="45.26375" lon="5.79439">
        <ele>1165</ele>
        <time>2019-09-15T14:45:21.000Z</time>
      </trkpt>
      <trkpt lat="45.26375" lon="5.79439">
        <ele>1164</ele>
        <time>2019-09-15T14:45:22.000Z</time>
      </trkpt>
      <trkpt lat="45.26375" lon="5.79439">
        <ele>1164</ele>
        <time>2019-09-15T14:45:23.000Z</time>
      </trkpt>
      <trkpt lat="45.26374" lon="5.79438">
        <ele>1163</ele>
        <time>2019-09-15T14:45:24.000Z</time>
      </trkpt>
      <trkpt lat="45.26374" lon="5.79437">
        <ele>1163</ele>
        <time>2019-09-15T14:45:25.000Z</time>
      </trkpt>
      <trkpt lat="45.26373" lon="5.79437">
        <ele>1162</ele>
        <time>2019-09-15T14:45:26.000Z</time>
      </trkpt>
      <trkpt lat="45.26373" lon="5.79436">
        <ele>1161</ele>
        <time>2019-09-15T14:45:27.000Z</time>
      </trkpt>
      <trkpt lat="45.26373" lon="5.79435">
        <ele>1161</ele>
        <time>2019-09-15T14:45:28.000Z</time>
      </trkpt>
      <trkpt lat="45.26373" lon="5.79434">
        <ele>1160</ele>
        <time>2019-09-15T14:45:29.000Z</time>
      </trkpt>
      <trkpt lat="45.26373" lon="5.79433">
        <ele>1159</ele>
        <time>2019-09-15T14:45:30.000Z</time>
      </trkpt>
      <trkpt lat="45.26372" lon="5.79433">
        <ele>1159</ele>
        <time>2019-09-15T14:45:31.000Z</time>
      </trkpt>
      <trkpt lat="45.26372" lon="5.79432">
        <ele>1158</ele>
        <time>2019-09-15T14:45:32.000Z</time>
      </trkpt>
      <trkpt lat="45.26372" lon="5.79432">
        <ele>1158</ele>
        <time>2019-09-15T14:45:33.000Z</time>
      </trkpt>
      <trkpt lat="45.26372" lon="5.79432">
        <ele>1157</ele>
        <time>2019-09-15T14:45:34.000Z</time>
      </trkpt>
      <trkpt lat="45.26371" lon="5.79432">
        <ele>1157</ele>
        <time>2019-09-15T14:45:35.000Z</time>
      </trkpt>
      <trkpt lat="45.26371" lon="5.79432">
        <ele>1157</ele>
        <time>2019-09-15T14:45:36.000Z</time>
      </trkpt>
      <trkpt lat="45.26371" lon="5.79431">
        <ele>1156</ele>
        <time>2019-09-15T14:45:37.000Z</time>
      </trkpt>
      <trkpt lat="45.26371" lon="5.79431">
        <ele>1156</ele>
        <time>2019-09-15T14:45:38.000Z</time>
      </trkpt>
      <trkpt lat="45.26371" lon="5.79431">
        <ele>1156</ele>
        <time>2019-09-15T14:45:39.000Z</time>
      </trkpt>
      <trkpt lat="45.26371" lon="5.7943">
        <ele>1156</ele>
        <time>2019-09-15T14:45:40.000Z</time>
      </trkpt>
      <trkpt lat="45.26371" lon="5.79429">
        <ele>1155</ele>
        <time>2019-09-15T14:45:41.000Z</time>
      </trkpt>
      <trkpt lat="45.26372" lon="5.79427">
        <ele>1155</ele>
        <time>2019-09-15T14:45:42.000Z</time>
      </trkpt>
      <trkpt lat="45.26373" lon="5.79425">
        <ele>1155</ele>
        <time>2019-09-15T14:45:43.000Z</time>
      </trkpt>
      <trkpt lat="45.26374" lon="5.79423">
        <ele>1154</ele>
        <time>2019-09-15T14:45:44.000Z</time>
      </trkpt>
      <trkpt lat="45.26374" lon="5.7942">
        <ele>1154</ele>
        <time>2019-09-15T14:45:45.000Z</time>
      </trkpt>
      <trkpt lat="45.26374" lon="5.79417">
        <ele>1154</ele>
        <time>2019-09-15T14:45:46.000Z</time>
      </trkpt>
      <trkpt lat="45.26374" lon="5.79414">
        <ele>1154</ele>
        <time>2019-09-15T14:45:47.000Z</time>
      </trkpt>
      <trkpt lat="45.26373" lon="5.7941">
        <ele>1153</ele>
        <time>2019-09-15T14:45:48.000Z</time>
      </trkpt>
      <trkpt lat="45.26372" lon="5.79407">
        <ele>1153</ele>
        <time>2019-09-15T14:45:49.000Z</time>
      </trkpt>
      <trkpt lat="45.26371" lon="5.79404">
        <ele>1153</ele>
        <time>2019-09-15T14:45:50.000Z</time>
      </trkpt>
      <trkpt lat="45.2637" lon="5.79401">
        <ele>1152</ele>
        <time>2019-09-15T14:45:51.000Z</time>
      </trkpt>
      <trkpt lat="45.26369" lon="5.79398">
        <ele>1152</ele>
        <time>2019-09-15T14:45:52.000Z</time>
      </trkpt>
      <trkpt lat="45.26369" lon="5.79395">
        <ele>1152</ele>
        <time>2019-09-15T14:45:53.000Z</time>
      </trkpt>
      <trkpt lat="45.26368" lon="5.79391">
        <ele>1152</ele>
        <time>2019-09-15T14:45:54.000Z</time>
      </trkpt>
      <trkpt lat="45.26368" lon="5.79387">
        <ele>1151</ele>
        <time>2019-09-15T14:45:55.000Z</time>
      </trkpt>
      <trkpt lat="45.26367" lon="5.79385">
        <ele>1151</ele>
        <time>2019-09-15T14:45:56.000Z</time>
      </trkpt>
      <trkpt lat="45.26366" lon="5.79382">
        <ele>1150</ele>
        <time>2019-09-15T14:45:57.000Z</time>
      </trkpt>
      <trkpt lat="45.26365" lon="5.79381">
        <ele>1150</ele>
        <time>2019-09-15T14:45:58.000Z</time>
      </trkpt>
      <trkpt lat="45.26364" lon="5.79379">
        <ele>1149</ele>
        <time>2019-09-15T14:45:59.000Z</time>
      </trkpt>
      <trkpt lat="45.26363" lon="5.79376">
        <ele>1148</ele>
        <time>2019-09-15T14:46:00.000Z</time>
      </trkpt>
      <trkpt lat="45.26364" lon="5.79374">
        <ele>1148</ele>
        <time>2019-09-15T14:46:01.000Z</time>
      </trkpt>
      <trkpt lat="45.26365" lon="5.79372">
        <ele>1147</ele>
        <time>2019-09-15T14:46:02.000Z</time>
      </trkpt>
      <trkpt lat="45.26367" lon="5.7937">
        <ele>1146</ele>
        <time>2019-09-15T14:46:03.000Z</time>
      </trkpt>
      <trkpt lat="45.26369" lon="5.7937">
        <ele>1145</ele>
        <time>2019-09-15T14:46:04.000Z</time>
      </trkpt>
      <trkpt lat="45.26371" lon="5.79371">
        <ele>1145</ele>
        <time>2019-09-15T14:46:05.000Z</time>
      </trkpt>
      <trkpt lat="45.26375" lon="5.79372">
        <ele>1144</ele>
        <time>2019-09-15T14:46:06.000Z</time>
      </trkpt>
      <trkpt lat="45.26378" lon="5.79374">
        <ele>1144</ele>
        <time>2019-09-15T14:46:07.000Z</time>
      </trkpt>
      <trkpt lat="45.26381" lon="5.79376">
        <ele>1143</ele>
        <time>2019-09-15T14:46:08.000Z</time>
      </trkpt>
      <trkpt lat="45.26384" lon="5.7938">
        <ele>1143</ele>
        <time>2019-09-15T14:46:09.000Z</time>
      </trkpt>
      <trkpt lat="45.26386" lon="5.79382">
        <ele>1142</ele>
        <time>2019-09-15T14:46:10.000Z</time>
      </trkpt>
      <trkpt lat="45.26388" lon="5.79384">
        <ele>1142</ele>
        <time>2019-09-15T14:46:11.000Z</time>
      </trkpt>
      <trkpt lat="45.2639" lon="5.79383">
        <ele>1141</ele>
        <time>2019-09-15T14:46:12.000Z</time>
      </trkpt>
      <trkpt lat="45.2639" lon="5.79383">
        <ele>1140</ele>
        <time>2019-09-15T14:46:13.000Z</time>
      </trkpt>
      <trkpt lat="45.26391" lon="5.79381">
        <ele>1140</ele>
        <time>2019-09-15T14:46:14.000Z</time>
      </trkpt>
      <trkpt lat="45.26391" lon="5.79378">
        <ele>1139</ele>
        <time>2019-09-15T14:46:15.000Z</time>
      </trkpt>
      <trkpt lat="45.2639" lon="5.79375">
        <ele>1139</ele>
        <time>2019-09-15T14:46:16.000Z</time>
      </trkpt>
      <trkpt lat="45.2639" lon="5.79372">
        <ele>1138</ele>
        <time>2019-09-15T14:46:17.000Z</time>
      </trkpt>
      <trkpt lat="45.2639" lon="5.7937">
        <ele>1138</ele>
        <time>2019-09-15T14:46:18.000Z</time>
      </trkpt>
      <trkpt lat="45.26391" lon="5.79367">
        <ele>1137</ele>
        <time>2019-09-15T14:46:19.000Z</time>
      </trkpt>
      <trkpt lat="45.26392" lon="5.79363">
        <ele>1136</ele>
        <time>2019-09-15T14:46:20.000Z</time>
      </trkpt>
      <trkpt lat="45.26391" lon="5.79359">
        <ele>1136</ele>
        <time>2019-09-15T14:46:21.000Z</time>
      </trkpt>
      <trkpt lat="45.2639" lon="5.79355">
        <ele>1135</ele>
        <time>2019-09-15T14:46:22.000Z</time>
      </trkpt>
      <trkpt lat="45.26388" lon="5.79352">
        <ele>1134</ele>
        <time>2019-09-15T14:46:23.000Z</time>
      </trkpt>
      <trkpt lat="45.26387" lon="5.79349">
        <ele>1134</ele>
        <time>2019-09-15T14:46:24.000Z</time>
      </trkpt>
      <trkpt lat="45.26388" lon="5.79347">
        <ele>1133</ele>
        <time>2019-09-15T14:46:25.000Z</time>
      </trkpt>
      <trkpt lat="45.2639" lon="5.79347">
        <ele>1133</ele>
        <time>2019-09-15T14:46:26.000Z</time>
      </trkpt>
      <trkpt lat="45.26391" lon="5.79346">
        <ele>1132</ele>
        <time>2019-09-15T14:46:27.000Z</time>
      </trkpt>
      <trkpt lat="45.26391" lon="5.79344">
        <ele>1131</ele>
        <time>2019-09-15T14:46:28.000Z</time>
      </trkpt>
      <trkpt lat="45.26391" lon="5.79342">
        <ele>1131</ele>
        <time>2019-09-15T14:46:29.000Z</time>
      </trkpt>
      <trkpt lat="45.26392" lon="5.79339">
        <ele>1130</ele>
        <time>2019-09-15T14:46:30.000Z</time>
      </trkpt>
      <trkpt lat="45.26394" lon="5.79336">
        <ele>1130</ele>
        <time>2019-09-15T14:46:31.000Z</time>
      </trkpt>
      <trkpt lat="45.26396" lon="5.79335">
        <ele>1129</ele>
        <time>2019-09-15T14:46:32.000Z</time>
      </trkpt>
      <trkpt lat="45.26399" lon="5.79334">
        <ele>1129</ele>
        <time>2019-09-15T14:46:33.000Z</time>
      </trkpt>
      <trkpt lat="45.26402" lon="5.79336">
        <ele>1128</ele>
        <time>2019-09-15T14:46:34.000Z</time>
      </trkpt>
      <trkpt lat="45.26404" lon="5.79338">
        <ele>1128</ele>
        <time>2019-09-15T14:46:35.000Z</time>
      </trkpt>
      <trkpt lat="45.26405" lon="5.79338">
        <ele>1128</ele>
        <time>2019-09-15T14:46:36.000Z</time>
      </trkpt>
      <trkpt lat="45.26406" lon="5.79338">
        <ele>1127</ele>
        <time>2019-09-15T14:46:37.000Z</time>
      </trkpt>
      <trkpt lat="45.26407" lon="5.79336">
        <ele>1127</ele>
        <time>2019-09-15T14:46:38.000Z</time>
      </trkpt>
      <trkpt lat="45.26407" lon="5.79333">
        <ele>1126</ele>
        <time>2019-09-15T14:46:39.000Z</time>
      </trkpt>
      <trkpt lat="45.26408" lon="5.79331">
        <ele>1126</ele>
        <time>2019-09-15T14:46:40.000Z</time>
      </trkpt>
      <trkpt lat="45.26408" lon="5.79328">
        <ele>1125</ele>
        <time>2019-09-15T14:46:41.000Z</time>
      </trkpt>
      <trkpt lat="45.26408" lon="5.79325">
        <ele>1124</ele>
        <time>2019-09-15T14:46:42.000Z</time>
      </trkpt>
      <trkpt lat="45.26408" lon="5.79322">
        <ele>1123</ele>
        <time>2019-09-15T14:46:43.000Z</time>
      </trkpt>
      <trkpt lat="45.26407" lon="5.79319">
        <ele>1123</ele>
        <time>2019-09-15T14:46:44.000Z</time>
      </trkpt>
      <trkpt lat="45.26405" lon="5.79316">
        <ele>1122</ele>
        <time>2019-09-15T14:46:45.000Z</time>
      </trkpt>
      <trkpt lat="45.26404" lon="5.79315">
        <ele>1122</ele>
        <time>2019-09-15T14:46:46.000Z</time>
      </trkpt>
      <trkpt lat="45.26403" lon="5.79314">
        <ele>1121</ele>
        <time>2019-09-15T14:46:47.000Z</time>
      </trkpt>
      <trkpt lat="45.26402" lon="5.79312">
        <ele>1120</ele>
        <time>2019-09-15T14:46:48.000Z</time>
      </trkpt>
      <trkpt lat="45.26402" lon="5.7931">
        <ele>1120</ele>
        <time>2019-09-15T14:46:49.000Z</time>
      </trkpt>
      <trkpt lat="45.26401" lon="5.79308">
        <ele>1119</ele>
        <time>2019-09-15T14:46:50.000Z</time>
      </trkpt>
      <trkpt lat="45.26401" lon="5.79305">
        <ele>1118</ele>
        <time>2019-09-15T14:46:51.000Z</time>
      </trkpt>
      <trkpt lat="45.264" lon="5.79301">
        <ele>1117</ele>
        <time>2019-09-15T14:46:52.000Z</time>
      </trkpt>
      <trkpt lat="45.26398" lon="5.79298">
        <ele>1116</ele>
        <time>2019-09-15T14:46:53.000Z</time>
      </trkpt>
      <trkpt lat="45.26396" lon="5.79296">
        <ele>1116</ele>
        <time>2019-09-15T14:46:54.000Z</time>
      </trkpt>
      <trkpt lat="45.26396" lon="5.79296">
        <ele>1115</ele>
        <time>2019-09-15T14:46:55.000Z</time>
      </trkpt>
      <trkpt lat="45.26395" lon="5.79296">
        <ele>1114</ele>
        <time>2019-09-15T14:46:56.000Z</time>
      </trkpt>
      <trkpt lat="45.26395" lon="5.79296">
        <ele>1114</ele>
        <time>2019-09-15T14:46:57.000Z</time>
      </trkpt>
      <trkpt lat="45.26395" lon="5.79296">
        <ele>1113</ele>
        <time>2019-09-15T14:46:58.000Z</time>
      </trkpt>
      <trkpt lat="45.26395" lon="5.79295">
        <ele>1112</ele>
        <time>2019-09-15T14:46:59.000Z</time>
      </trkpt>
      <trkpt lat="45.26395" lon="5.79295">
        <ele>1112</ele>
        <time>2019-09-15T14:47:00.000Z</time>
      </trkpt>
      <trkpt lat="45.26395" lon="5.79295">
        <ele>1111</ele>
        <time>2019-09-15T14:47:01.000Z</time>
      </trkpt>
      <trkpt lat="45.26395" lon="5.79295">
        <ele>1111</ele>
        <time>2019-09-15T14:47:02.000Z</time>
      </trkpt>
      <trkpt lat="45.26395" lon="5.79295">
        <ele>1111</ele>
        <time>2019-09-15T14:47:03.000Z</time>
      </trkpt>
      <trkpt lat="45.26394" lon="5.79295">
        <ele>1110</ele>
        <time>2019-09-15T14:47:04.000Z</time>
      </trkpt>
      <trkpt lat="45.26394" lon="5.79295">
        <ele>1110</ele>
        <time>2019-09-15T14:47:05.000Z</time>
      </trkpt>
      <trkpt lat="45.26393" lon="5.79295">
        <ele>1110</ele>
        <time>2019-09-15T14:47:06.000Z</time>
      </trkpt>
      <trkpt lat="45.26393" lon="5.79295">
        <ele>1109</ele>
        <time>2019-09-15T14:47:07.000Z</time>
      </trkpt>
      <trkpt lat="45.26393" lon="5.79295">
        <ele>1109</ele>
        <time>2019-09-15T14:47:08.000Z</time>
      </trkpt>
      <trkpt lat="45.26393" lon="5.79295">
        <ele>1109</ele>
        <time>2019-09-15T14:47:09.000Z</time>
      </trkpt>
      <trkpt lat="45.26392" lon="5.79294">
        <ele>1109</ele>
        <time>2019-09-15T14:47:10.000Z</time>
      </trkpt>
      <trkpt lat="45.26392" lon="5.79294">
        <ele>1108</ele>
        <time>2019-09-15T14:47:11.000Z</time>
      </trkpt>
      <trkpt lat="45.26392" lon="5.79294">
        <ele>1108</ele>
        <time>2019-09-15T14:47:12.000Z</time>
      </trkpt>
      <trkpt lat="45.26393" lon="5.79294">
        <ele>1108</ele>
        <time>2019-09-15T14:47:13.000Z</time>
      </trkpt>
      <trkpt lat="45.26393" lon="5.79294">
        <ele>1108</ele>
        <time>2019-09-15T14:47:14.000Z</time>
      </trkpt>
      <trkpt lat="45.26393" lon="5.79294">
        <ele>1108</ele>
        <time>2019-09-15T14:47:15.000Z</time>
      </trkpt>
      <trkpt lat="45.26392" lon="5.79294">
        <ele>1107</ele>
        <time>2019-09-15T14:47:16.000Z</time>
      </trkpt>
      <trkpt lat="45.26392" lon="5.79294">
        <ele>1107</ele>
        <time>2019-09-15T14:47:17.000Z</time>
      </trkpt>
      <trkpt lat="45.26392" lon="5.79293">
        <ele>1107</ele>
        <time>2019-09-15T14:47:18.000Z</time>
      </trkpt>
      <trkpt lat="45.26391" lon="5.79291">
        <ele>1107</ele>
        <time>2019-09-15T14:47:19.000Z</time>
      </trkpt>
      <trkpt lat="45.26391" lon="5.79289">
        <ele>1106</ele>
        <time>2019-09-15T14:47:20.000Z</time>
      </trkpt>
      <trkpt lat="45.26392" lon="5.79287">
        <ele>1106</ele>
        <time>2019-09-15T14:47:21.000Z</time>
      </trkpt>
      <trkpt lat="45.26393" lon="5.79286">
        <ele>1106</ele>
        <time>2019-09-15T14:47:22.000Z</time>
      </trkpt>
      <trkpt lat="45.26395" lon="5.79287">
        <ele>1106</ele>
        <time>2019-09-15T14:47:23.000Z</time>
      </trkpt>
      <trkpt lat="45.26397" lon="5.79288">
        <ele>1105</ele>
        <time>2019-09-15T14:47:24.000Z</time>
      </trkpt>
      <trkpt lat="45.26398" lon="5.7929">
        <ele>1105</ele>
        <time>2019-09-15T14:47:25.000Z</time>
      </trkpt>
      <trkpt lat="45.26399" lon="5.79291">
        <ele>1105</ele>
        <time>2019-09-15T14:47:26.000Z</time>
      </trkpt>
      <trkpt lat="45.264" lon="5.79291">
        <ele>1105</ele>
        <time>2019-09-15T14:47:27.000Z</time>
      </trkpt>
      <trkpt lat="45.26401" lon="5.79292">
        <ele>1104</ele>
        <time>2019-09-15T14:47:28.000Z</time>
      </trkpt>
      <trkpt lat="45.26402" lon="5.79292">
        <ele>1104</ele>
        <time>2019-09-15T14:47:29.000Z</time>
      </trkpt>
      <trkpt lat="45.26405" lon="5.79293">
        <ele>1104</ele>
        <time>2019-09-15T14:47:30.000Z</time>
      </trkpt>
      <trkpt lat="45.26406" lon="5.79294">
        <ele>1104</ele>
        <time>2019-09-15T14:47:31.000Z</time>
      </trkpt>
      <trkpt lat="45.26406" lon="5.79294">
        <ele>1104</ele>
        <time>2019-09-15T14:47:32.000Z</time>
      </trkpt>
      <trkpt lat="45.26406" lon="5.79294">
        <ele>1103</ele>
        <time>2019-09-15T14:47:33.000Z</time>
      </trkpt>
      <trkpt lat="45.26407" lon="5.79294">
        <ele>1103</ele>
        <time>2019-09-15T14:47:34.000Z</time>
      </trkpt>
      <trkpt lat="45.26407" lon="5.79294">
        <ele>1103</ele>
        <time>2019-09-15T14:47:35.000Z</time>
      </trkpt>
      <trkpt lat="45.26407" lon="5.79294">
        <ele>1103</ele>
        <time>2019-09-15T14:47:36.000Z</time>
      </trkpt>
      <trkpt lat="45.26407" lon="5.79294">
        <ele>1103</ele>
        <time>2019-09-15T14:47:37.000Z</time>
      </trkpt>
      <trkpt lat="45.26408" lon="5.79295">
        <ele>1103</ele>
        <time>2019-09-15T14:47:38.000Z</time>
      </trkpt>
      <trkpt lat="45.2641" lon="5.79295">
        <ele>1103</ele>
        <time>2019-09-15T14:47:39.000Z</time>
      </trkpt>
      <trkpt lat="45.26411" lon="5.79296">
        <ele>1102</ele>
        <time>2019-09-15T14:47:40.000Z</time>
      </trkpt>
      <trkpt lat="45.26413" lon="5.79296">
        <ele>1102</ele>
        <time>2019-09-15T14:47:41.000Z</time>
      </trkpt>
      <trkpt lat="45.26414" lon="5.79297">
        <ele>1102</ele>
        <time>2019-09-15T14:47:42.000Z</time>
      </trkpt>
      <trkpt lat="45.26414" lon="5.79297">
        <ele>1102</ele>
        <time>2019-09-15T14:47:43.000Z</time>
      </trkpt>
      <trkpt lat="45.26415" lon="5.79297">
        <ele>1102</ele>
        <time>2019-09-15T14:47:44.000Z</time>
      </trkpt>
      <trkpt lat="45.26415" lon="5.79296">
        <ele>1102</ele>
        <time>2019-09-15T14:47:45.000Z</time>
      </trkpt>
      <trkpt lat="45.26415" lon="5.79296">
        <ele>1102</ele>
        <time>2019-09-15T14:47:46.000Z</time>
      </trkpt>
      <trkpt lat="45.26416" lon="5.79296">
        <ele>1102</ele>
        <time>2019-09-15T14:47:47.000Z</time>
      </trkpt>
      <trkpt lat="45.26417" lon="5.79297">
        <ele>1101</ele>
        <time>2019-09-15T14:47:48.000Z</time>
      </trkpt>
      <trkpt lat="45.26417" lon="5.79297">
        <ele>1101</ele>
        <time>2019-09-15T14:47:49.000Z</time>
      </trkpt>
      <trkpt lat="45.26418" lon="5.79297">
        <ele>1101</ele>
        <time>2019-09-15T14:47:50.000Z</time>
      </trkpt>
      <trkpt lat="45.26419" lon="5.79298">
        <ele>1101</ele>
        <time>2019-09-15T14:47:51.000Z</time>
      </trkpt>
      <trkpt lat="45.2642" lon="5.79298">
        <ele>1100</ele>
        <time>2019-09-15T14:47:52.000Z</time>
      </trkpt>
      <trkpt lat="45.26421" lon="5.79298">
        <ele>1100</ele>
        <time>2019-09-15T14:47:53.000Z</time>
      </trkpt>
      <trkpt lat="45.26423" lon="5.79298">
        <ele>1100</ele>
        <time>2019-09-15T14:47:54.000Z</time>
      </trkpt>
      <trkpt lat="45.26424" lon="5.79297">
        <ele>1099</ele>
        <time>2019-09-15T14:47:55.000Z</time>
      </trkpt>
      <trkpt lat="45.26425" lon="5.79296">
        <ele>1099</ele>
        <time>2019-09-15T14:47:56.000Z</time>
      </trkpt>
      <trkpt lat="45.26426" lon="5.79295">
        <ele>1098</ele>
        <time>2019-09-15T14:47:57.000Z</time>
      </trkpt>
      <trkpt lat="45.26426" lon="5.79294">
        <ele>1098</ele>
        <time>2019-09-15T14:47:58.000Z</time>
      </trkpt>
      <trkpt lat="45.26426" lon="5.79292">
        <ele>1098</ele>
        <time>2019-09-15T14:47:59.000Z</time>
      </trkpt>
      <trkpt lat="45.26426" lon="5.79289">
        <ele>1097</ele>
        <time>2019-09-15T14:48:00.000Z</time>
      </trkpt>
      <trkpt lat="45.26426" lon="5.79288">
        <ele>1097</ele>
        <time>2019-09-15T14:48:01.000Z</time>
      </trkpt>
      <trkpt lat="45.26426" lon="5.79287">
        <ele>1097</ele>
        <time>2019-09-15T14:48:02.000Z</time>
      </trkpt>
      <trkpt lat="45.26426" lon="5.79286">
        <ele>1096</ele>
        <time>2019-09-15T14:48:03.000Z</time>
      </trkpt>
      <trkpt lat="45.26426" lon="5.79284">
        <ele>1096</ele>
        <time>2019-09-15T14:48:04.000Z</time>
      </trkpt>
      <trkpt lat="45.26427" lon="5.79282">
        <ele>1096</ele>
        <time>2019-09-15T14:48:05.000Z</time>
      </trkpt>
      <trkpt lat="45.26427" lon="5.7928">
        <ele>1095</ele>
        <time>2019-09-15T14:48:06.000Z</time>
      </trkpt>
      <trkpt lat="45.26427" lon="5.79277">
        <ele>1095</ele>
        <time>2019-09-15T14:48:07.000Z</time>
      </trkpt>
      <trkpt lat="45.26426" lon="5.79274">
        <ele>1095</ele>
        <time>2019-09-15T14:48:08.000Z</time>
      </trkpt>
      <trkpt lat="45.26426" lon="5.79271">
        <ele>1094</ele>
        <time>2019-09-15T14:48:09.000Z</time>
      </trkpt>
      <trkpt lat="45.26425" lon="5.79269">
        <ele>1094</ele>
        <time>2019-09-15T14:48:10.000Z</time>
      </trkpt>
      <trkpt lat="45.26425" lon="5.79269">
        <ele>1093</ele>
        <time>2019-09-15T14:48:11.000Z</time>
      </trkpt>
      <trkpt lat="45.26425" lon="5.79269">
        <ele>1093</ele>
        <time>2019-09-15T14:48:12.000Z</time>
      </trkpt>
      <trkpt lat="45.26425" lon="5.79268">
        <ele>1093</ele>
        <time>2019-09-15T14:48:13.000Z</time>
      </trkpt>
      <trkpt lat="45.26425" lon="5.79268">
        <ele>1092</ele>
        <time>2019-09-15T14:48:14.000Z</time>
      </trkpt>
      <trkpt lat="45.26425" lon="5.79268">
        <ele>1092</ele>
        <time>2019-09-15T14:48:15.000Z</time>
      </trkpt>
      <trkpt lat="45.26425" lon="5.79267">
        <ele>1091</ele>
        <time>2019-09-15T14:48:16.000Z</time>
      </trkpt>
      <trkpt lat="45.26425" lon="5.79267">
        <ele>1091</ele>
        <time>2019-09-15T14:48:17.000Z</time>
      </trkpt>
      <trkpt lat="45.26424" lon="5.79266">
        <ele>1091</ele>
        <time>2019-09-15T14:48:18.000Z</time>
      </trkpt>
      <trkpt lat="45.26424" lon="5.79265">
        <ele>1090</ele>
        <time>2019-09-15T14:48:19.000Z</time>
      </trkpt>
      <trkpt lat="45.26423" lon="5.79263">
        <ele>1089</ele>
        <time>2019-09-15T14:48:20.000Z</time>
      </trkpt>
      <trkpt lat="45.26422" lon="5.79261">
        <ele>1089</ele>
        <time>2019-09-15T14:48:21.000Z</time>
      </trkpt>
      <trkpt lat="45.2642" lon="5.7926">
        <ele>1089</ele>
        <time>2019-09-15T14:48:22.000Z</time>
      </trkpt>
      <trkpt lat="45.26418" lon="5.79259">
        <ele>1088</ele>
        <time>2019-09-15T14:48:23.000Z</time>
      </trkpt>
      <trkpt lat="45.26416" lon="5.79258">
        <ele>1088</ele>
        <time>2019-09-15T14:48:24.000Z</time>
      </trkpt>
      <trkpt lat="45.26414" lon="5.79256">
        <ele>1088</ele>
        <time>2019-09-15T14:48:25.000Z</time>
      </trkpt>
      <trkpt lat="45.26412" lon="5.79254">
        <ele>1087</ele>
        <time>2019-09-15T14:48:26.000Z</time>
      </trkpt>
      <trkpt lat="45.26412" lon="5.79251">
        <ele>1087</ele>
        <time>2019-09-15T14:48:27.000Z</time>
      </trkpt>
      <trkpt lat="45.26413" lon="5.79249">
        <ele>1087</ele>
        <time>2019-09-15T14:48:28.000Z</time>
      </trkpt>
      <trkpt lat="45.26415" lon="5.79247">
        <ele>1086</ele>
        <time>2019-09-15T14:48:29.000Z</time>
      </trkpt>
      <trkpt lat="45.26416" lon="5.79247">
        <ele>1086</ele>
        <time>2019-09-15T14:48:30.000Z</time>
      </trkpt>
      <trkpt lat="45.26418" lon="5.79247">
        <ele>1085</ele>
        <time>2019-09-15T14:48:31.000Z</time>
      </trkpt>
      <trkpt lat="45.26419" lon="5.79247">
        <ele>1085</ele>
        <time>2019-09-15T14:48:32.000Z</time>
      </trkpt>
      <trkpt lat="45.26421" lon="5.79248">
        <ele>1085</ele>
        <time>2019-09-15T14:48:33.000Z</time>
      </trkpt>
      <trkpt lat="45.26423" lon="5.79248">
        <ele>1084</ele>
        <time>2019-09-15T14:48:34.000Z</time>
      </trkpt>
      <trkpt lat="45.26425" lon="5.79249">
        <ele>1084</ele>
        <time>2019-09-15T14:48:35.000Z</time>
      </trkpt>
      <trkpt lat="45.26426" lon="5.7925">
        <ele>1083</ele>
        <time>2019-09-15T14:48:36.000Z</time>
      </trkpt>
      <trkpt lat="45.26428" lon="5.79249">
        <ele>1083</ele>
        <time>2019-09-15T14:48:37.000Z</time>
      </trkpt>
      <trkpt lat="45.2643" lon="5.79247">
        <ele>1082</ele>
        <time>2019-09-15T14:48:38.000Z</time>
      </trkpt>
      <trkpt lat="45.26432" lon="5.79247">
        <ele>1082</ele>
        <time>2019-09-15T14:48:39.000Z</time>
      </trkpt>
      <trkpt lat="45.26433" lon="5.79249">
        <ele>1081</ele>
        <time>2019-09-15T14:48:40.000Z</time>
      </trkpt>
      <trkpt lat="45.26434" lon="5.7925">
        <ele>1081</ele>
        <time>2019-09-15T14:48:41.000Z</time>
      </trkpt>
      <trkpt lat="45.26436" lon="5.79251">
        <ele>1081</ele>
        <time>2019-09-15T14:48:42.000Z</time>
      </trkpt>
      <trkpt lat="45.26438" lon="5.7925">
        <ele>1080</ele>
        <time>2019-09-15T14:48:43.000Z</time>
      </trkpt>
      <trkpt lat="45.2644" lon="5.7925">
        <ele>1080</ele>
        <time>2019-09-15T14:48:44.000Z</time>
      </trkpt>
      <trkpt lat="45.26441" lon="5.7925">
        <ele>1080</ele>
        <time>2019-09-15T14:48:45.000Z</time>
      </trkpt>
      <trkpt lat="45.26442" lon="5.7925">
        <ele>1080</ele>
        <time>2019-09-15T14:48:46.000Z</time>
      </trkpt>
      <trkpt lat="45.26443" lon="5.79251">
        <ele>1079</ele>
        <time>2019-09-15T14:48:47.000Z</time>
      </trkpt>
      <trkpt lat="45.26444" lon="5.79251">
        <ele>1079</ele>
        <time>2019-09-15T14:48:48.000Z</time>
      </trkpt>
      <trkpt lat="45.26446" lon="5.79251">
        <ele>1079</ele>
        <time>2019-09-15T14:48:49.000Z</time>
      </trkpt>
      <trkpt lat="45.26448" lon="5.79249">
        <ele>1079</ele>
        <time>2019-09-15T14:48:50.000Z</time>
      </trkpt>
      <trkpt lat="45.26449" lon="5.79247">
        <ele>1078</ele>
        <time>2019-09-15T14:48:51.000Z</time>
      </trkpt>
      <trkpt lat="45.26449" lon="5.79245">
        <ele>1078</ele>
        <time>2019-09-15T14:48:52.000Z</time>
      </trkpt>
      <trkpt lat="45.26449" lon="5.79243">
        <ele>1078</ele>
        <time>2019-09-15T14:48:53.000Z</time>
      </trkpt>
      <trkpt lat="45.26448" lon="5.79241">
        <ele>1077</ele>
        <time>2019-09-15T14:48:54.000Z</time>
      </trkpt>
      <trkpt lat="45.26448" lon="5.7924">
        <ele>1077</ele>
        <time>2019-09-15T14:48:55.000Z</time>
      </trkpt>
      <trkpt lat="45.26447" lon="5.79239">
        <ele>1076</ele>
        <time>2019-09-15T14:48:56.000Z</time>
      </trkpt>
      <trkpt lat="45.26447" lon="5.79238">
        <ele>1076</ele>
        <time>2019-09-15T14:48:57.000Z</time>
      </trkpt>
      <trkpt lat="45.26447" lon="5.79238">
        <ele>1075</ele>
        <time>2019-09-15T14:48:58.000Z</time>
      </trkpt>
      <trkpt lat="45.26446" lon="5.79238">
        <ele>1075</ele>
        <time>2019-09-15T14:48:59.000Z</time>
      </trkpt>
      <trkpt lat="45.26446" lon="5.79238">
        <ele>1074</ele>
        <time>2019-09-15T14:49:00.000Z</time>
      </trkpt>
      <trkpt lat="45.26446" lon="5.79238">
        <ele>1074</ele>
        <time>2019-09-15T14:49:01.000Z</time>
      </trkpt>
      <trkpt lat="45.26446" lon="5.79239">
        <ele>1073</ele>
        <time>2019-09-15T14:49:02.000Z</time>
      </trkpt>
      <trkpt lat="45.26446" lon="5.79239">
        <ele>1073</ele>
        <time>2019-09-15T14:49:03.000Z</time>
      </trkpt>
      <trkpt lat="45.26446" lon="5.79239">
        <ele>1073</ele>
        <time>2019-09-15T14:49:04.000Z</time>
      </trkpt>
      <trkpt lat="45.26446" lon="5.79239">
        <ele>1073</ele>
        <time>2019-09-15T14:49:05.000Z</time>
      </trkpt>
      <trkpt lat="45.26446" lon="5.79239">
        <ele>1072</ele>
        <time>2019-09-15T14:49:06.000Z</time>
      </trkpt>
      <trkpt lat="45.26446" lon="5.79239">
        <ele>1072</ele>
        <time>2019-09-15T14:49:07.000Z</time>
      </trkpt>
      <trkpt lat="45.26446" lon="5.79239">
        <ele>1072</ele>
        <time>2019-09-15T14:49:08.000Z</time>
      </trkpt>
      <trkpt lat="45.26446" lon="5.79239">
        <ele>1072</ele>
        <time>2019-09-15T14:49:09.000Z</time>
      </trkpt>
      <trkpt lat="45.26446" lon="5.79239">
        <ele>1071</ele>
        <time>2019-09-15T14:49:10.000Z</time>
      </trkpt>
      <trkpt lat="45.26446" lon="5.79239">
        <ele>1071</ele>
        <time>2019-09-15T14:49:11.000Z</time>
      </trkpt>
      <trkpt lat="45.26446" lon="5.79239">
        <ele>1071</ele>
        <time>2019-09-15T14:49:12.000Z</time>
      </trkpt>
      <trkpt lat="45.26446" lon="5.79239">
        <ele>1071</ele>
        <time>2019-09-15T14:49:13.000Z</time>
      </trkpt>
      <trkpt lat="45.26446" lon="5.79239">
        <ele>1071</ele>
        <time>2019-09-15T14:49:14.000Z</time>
      </trkpt>
      <trkpt lat="45.26446" lon="5.79239">
        <ele>1071</ele>
        <time>2019-09-15T14:49:15.000Z</time>
      </trkpt>
      <trkpt lat="45.26446" lon="5.79239">
        <ele>1071</ele>
        <time>2019-09-15T14:49:16.000Z</time>
      </trkpt>
      <trkpt lat="45.26446" lon="5.79239">
        <ele>1070</ele>
        <time>2019-09-15T14:49:17.000Z</time>
      </trkpt>
      <trkpt lat="45.26446" lon="5.79239">
        <ele>1070</ele>
        <time>2019-09-15T14:49:18.000Z</time>
      </trkpt>
      <trkpt lat="45.26445" lon="5.7924">
        <ele>1070</ele>
        <time>2019-09-15T14:49:19.000Z</time>
      </trkpt>
      <trkpt lat="45.26445" lon="5.7924">
        <ele>1070</ele>
        <time>2019-09-15T14:49:20.000Z</time>
      </trkpt>
      <trkpt lat="45.26445" lon="5.7924">
        <ele>1070</ele>
        <time>2019-09-15T14:49:21.000Z</time>
      </trkpt>
      <trkpt lat="45.26445" lon="5.7924">
        <ele>1070</ele>
        <time>2019-09-15T14:49:22.000Z</time>
      </trkpt>
      <trkpt lat="45.26445" lon="5.7924">
        <ele>1070</ele>
        <time>2019-09-15T14:49:23.000Z</time>
      </trkpt>
      <trkpt lat="45.26445" lon="5.7924">
        <ele>1070</ele>
        <time>2019-09-15T14:49:24.000Z</time>
      </trkpt>
      <trkpt lat="45.26445" lon="5.79241">
        <ele>1069</ele>
        <time>2019-09-15T14:49:25.000Z</time>
      </trkpt>
      <trkpt lat="45.26445" lon="5.79241">
        <ele>1069</ele>
        <time>2019-09-15T14:49:26.000Z</time>
      </trkpt>
      <trkpt lat="45.26445" lon="5.79241">
        <ele>1069</ele>
        <time>2019-09-15T14:49:27.000Z</time>
      </trkpt>
      <trkpt lat="45.26445" lon="5.79241">
        <ele>1069</ele>
        <time>2019-09-15T14:49:28.000Z</time>
      </trkpt>
      <trkpt lat="45.26445" lon="5.79241">
        <ele>1069</ele>
        <time>2019-09-15T14:49:29.000Z</time>
      </trkpt>
      <trkpt lat="45.26445" lon="5.79241">
        <ele>1069</ele>
        <time>2019-09-15T14:49:30.000Z</time>
      </trkpt>
      <trkpt lat="45.26445" lon="5.79241">
        <ele>1069</ele>
        <time>2019-09-15T14:49:31.000Z</time>
      </trkpt>
      <trkpt lat="45.26445" lon="5.79241">
        <ele>1069</ele>
        <time>2019-09-15T14:49:32.000Z</time>
      </trkpt>
      <trkpt lat="45.26445" lon="5.79241">
        <ele>1069</ele>
        <time>2019-09-15T14:49:33.000Z</time>
      </trkpt>
      <trkpt lat="45.26445" lon="5.79241">
        <ele>1069</ele>
        <time>2019-09-15T14:49:34.000Z</time>
      </trkpt>
      <trkpt lat="45.26445" lon="5.79241">
        <ele>1069</ele>
        <time>2019-09-15T14:49:35.000Z</time>
      </trkpt>
      <trkpt lat="45.26444" lon="5.79241">
        <ele>1069</ele>
        <time>2019-09-15T14:49:36.000Z</time>
      </trkpt>
      <trkpt lat="45.26444" lon="5.79241">
        <ele>1068</ele>
        <time>2019-09-15T14:49:37.000Z</time>
      </trkpt>
      <trkpt lat="45.26444" lon="5.79241">
        <ele>1068</ele>
        <time>2019-09-15T14:49:38.000Z</time>
      </trkpt>
      <trkpt lat="45.26444" lon="5.79241">
        <ele>1068</ele>
        <time>2019-09-15T14:49:39.000Z</time>
      </trkpt>
      <trkpt lat="45.26444" lon="5.79241">
        <ele>1068</ele>
        <time>2019-09-15T14:49:40.000Z</time>
      </trkpt>
      <trkpt lat="45.26444" lon="5.79241">
        <ele>1068</ele>
        <time>2019-09-15T14:49:41.000Z</time>
      </trkpt>
      <trkpt lat="45.26444" lon="5.79241">
        <ele>1068</ele>
        <time>2019-09-15T14:49:42.000Z</time>
      </trkpt>
      <trkpt lat="45.26444" lon="5.79241">
        <ele>1068</ele>
        <time>2019-09-15T14:49:43.000Z</time>
      </trkpt>
      <trkpt lat="45.26444" lon="5.79239">
        <ele>1068</ele>
        <time>2019-09-15T14:49:44.000Z</time>
      </trkpt>
      <trkpt lat="45.26444" lon="5.79238">
        <ele>1068</ele>
        <time>2019-09-15T14:49:45.000Z</time>
      </trkpt>
      <trkpt lat="45.26445" lon="5.79237">
        <ele>1067</ele>
        <time>2019-09-15T14:49:46.000Z</time>
      </trkpt>
      <trkpt lat="45.26445" lon="5.79237">
        <ele>1067</ele>
        <time>2019-09-15T14:49:47.000Z</time>
      </trkpt>
      <trkpt lat="45.26446" lon="5.79235">
        <ele>1067</ele>
        <time>2019-09-15T14:49:48.000Z</time>
      </trkpt>
      <trkpt lat="45.26449" lon="5.79233">
        <ele>1067</ele>
        <time>2019-09-15T14:49:49.000Z</time>
      </trkpt>
    </trkseg>
  </trk>
</gpx>